sensor_id;sensor_type;location;lat;lon;timestamp;temperature;humidity
13440;DHT22;6792;57.698;11.946;2022-10-17T00:00:03;19.10;49.20
13440;DHT22;6792;57.698;11.946;2022-10-17T00:02:32;19.10;49.20
13440;DHT22;6792;57.698;11.946;2022-10-17T00:05:01;19.10;49.10
13440;DHT22;6792;57.698;11.946;2022-10-17T00:07:31;19.10;49.10
13440;DHT22;6792;57.698;11.946;2022-10-17T00:10:00;19.10;49.10
13440;DHT22;6792;57.698;11.946;2022-10-17T00:12:29;19.10;49.10
13440;DHT22;6792;57.698;11.946;2022-10-17T00:14:58;19.10;49.20
13440;DHT22;6792;57.698;11.946;2022-10-17T00:17:27;19.10;49.20
13440;DHT22;6792;57.698;11.946;2022-10-17T00:19:58;19.00;49.20
13440;DHT22;6792;57.698;11.946;2022-10-17T00:22:27;19.10;49.20
13440;DHT22;6792;57.698;11.946;2022-10-17T00:24:56;19.00;49.20
13440;DHT22;6792;57.698;11.946;2022-10-17T00:27:25;19.00;49.30
13440;DHT22;6792;57.698;11.946;2022-10-17T00:29:54;19.00;49.10
13440;DHT22;6792;57.698;11.946;2022-10-17T00:32:23;19.00;49.00
13440;DHT22;6792;57.698;11.946;2022-10-17T00:34:52;19.00;48.90
13440;DHT22;6792;57.698;11.946;2022-10-17T00:37:21;19.00;48.80
13440;DHT22;6792;57.698;11.946;2022-10-17T00:39:50;19.00;48.70
13440;DHT22;6792;57.698;11.946;2022-10-17T00:42:19;19.00;48.70
13440;DHT22;6792;57.698;11.946;2022-10-17T00:48:03;19.00;48.60
13440;DHT22;6792;57.698;11.946;2022-10-17T00:50:33;19.00;48.80
13440;DHT22;6792;57.698;11.946;2022-10-17T00:53:05;18.90;48.70
13440;DHT22;6792;57.698;11.946;2022-10-17T00:55:38;18.90;48.70
13440;DHT22;6792;57.698;11.946;2022-10-17T00:58:07;18.90;48.70
13440;DHT22;6792;57.698;11.946;2022-10-17T01:00:36;19.00;48.70
13440;DHT22;6792;57.698;11.946;2022-10-17T01:03:05;19.00;48.70
13440;DHT22;6792;57.698;11.946;2022-10-17T01:05:35;19.00;48.70
13440;DHT22;6792;57.698;11.946;2022-10-17T01:08:05;19.00;48.70
13440;DHT22;6792;57.698;11.946;2022-10-17T01:10:43;19.00;48.80
13440;DHT22;6792;57.698;11.946;2022-10-17T01:13:14;19.00;48.80
13440;DHT22;6792;57.698;11.946;2022-10-17T01:15:53;19.00;48.80
13440;DHT22;6792;57.698;11.946;2022-10-17T01:18:31;19.00;49.10
13440;DHT22;6792;57.698;11.946;2022-10-17T01:21:14;19.00;49.10
13440;DHT22;6792;57.698;11.946;2022-10-17T01:23:55;19.00;49.20
13440;DHT22;6792;57.698;11.946;2022-10-17T01:32:15;19.00;49.40
13440;DHT22;6792;57.698;11.946;2022-10-17T01:34:49;18.90;48.80
13440;DHT22;6792;57.698;11.946;2022-10-17T01:37:19;18.90;48.90
13440;DHT22;6792;57.698;11.946;2022-10-17T01:39:52;18.90;49.50
13440;DHT22;6792;57.698;11.946;2022-10-17T01:42:24;18.90;49.50
13440;DHT22;6792;57.698;11.946;2022-10-17T01:44:57;18.90;49.00
13440;DHT22;6792;57.698;11.946;2022-10-17T01:47:29;18.90;49.60
13440;DHT22;6792;57.698;11.946;2022-10-17T01:50:02;18.90;49.70
13440;DHT22;6792;57.698;11.946;2022-10-17T01:52:32;18.90;49.70
13440;DHT22;6792;57.698;11.946;2022-10-17T01:57:48;18.80;49.10
13440;DHT22;6792;57.698;11.946;2022-10-17T02:00:20;18.80;49.60
13440;DHT22;6792;57.698;11.946;2022-10-17T02:02:52;18.90;49.70
13440;DHT22;6792;57.698;11.946;2022-10-17T02:05:25;18.80;49.10
13440;DHT22;6792;57.698;11.946;2022-10-17T02:07:56;18.80;49.80
13440;DHT22;6792;57.698;11.946;2022-10-17T02:10:30;18.70;49.30
13440;DHT22;6792;57.698;11.946;2022-10-17T02:13:04;18.80;49.80
13440;DHT22;6792;57.698;11.946;2022-10-17T02:15:56;18.80;49.80
13440;DHT22;6792;57.698;11.946;2022-10-17T02:18:54;18.70;49.90
13440;DHT22;6792;57.698;11.946;2022-10-17T02:21:27;18.60;49.30
13440;DHT22;6792;57.698;11.946;2022-10-17T02:23:59;18.60;50.00
13440;DHT22;6792;57.698;11.946;2022-10-17T02:26:31;18.60;49.50
13440;DHT22;6792;57.698;11.946;2022-10-17T02:29:06;18.60;50.10
13440;DHT22;6792;57.698;11.946;2022-10-17T02:31:39;18.70;50.10
13440;DHT22;6792;57.698;11.946;2022-10-17T02:34:11;18.70;50.00
13440;DHT22;6792;57.698;11.946;2022-10-17T02:36:43;18.70;49.50
13440;DHT22;6792;57.698;11.946;2022-10-17T02:39:13;18.60;50.00
13440;DHT22;6792;57.698;11.946;2022-10-17T02:41:44;18.70;50.00
13440;DHT22;6792;57.698;11.946;2022-10-17T02:44:14;18.70;50.00
13440;DHT22;6792;57.698;11.946;2022-10-17T02:46:46;18.70;49.90
13440;DHT22;6792;57.698;11.946;2022-10-17T02:49:19;18.70;49.30
13440;DHT22;6792;57.698;11.946;2022-10-17T02:51:51;18.70;49.30
13440;DHT22;6792;57.698;11.946;2022-10-17T02:54:22;18.70;49.80
13440;DHT22;6792;57.698;11.946;2022-10-17T02:56:54;18.70;49.30
13440;DHT22;6792;57.698;11.946;2022-10-17T02:59:25;18.70;49.30
13440;DHT22;6792;57.698;11.946;2022-10-17T03:01:55;18.60;49.80
13440;DHT22;6792;57.698;11.946;2022-10-17T03:04:24;18.60;49.80
13440;DHT22;6792;57.698;11.946;2022-10-17T03:06:53;18.60;49.90
13440;DHT22;6792;57.698;11.946;2022-10-17T03:09:22;18.60;49.80
13440;DHT22;6792;57.698;11.946;2022-10-17T03:11:50;18.60;49.80
13440;DHT22;6792;57.698;11.946;2022-10-17T03:14:19;18.60;49.30
13440;DHT22;6792;57.698;11.946;2022-10-17T03:16:48;18.60;49.90
13440;DHT22;6792;57.698;11.946;2022-10-17T03:19:17;18.60;49.80
13440;DHT22;6792;57.698;11.946;2022-10-17T03:21:46;18.60;49.40
13440;DHT22;6792;57.698;11.946;2022-10-17T03:24:15;18.60;49.90
13440;DHT22;6792;57.698;11.946;2022-10-17T03:26:44;18.60;49.90
13440;DHT22;6792;57.698;11.946;2022-10-17T03:29:14;18.60;50.00
13440;DHT22;6792;57.698;11.946;2022-10-17T03:31:43;18.60;50.00
13440;DHT22;6792;57.698;11.946;2022-10-17T03:34:12;18.60;50.20
13440;DHT22;6792;57.698;11.946;2022-10-17T03:36:42;18.50;50.10
13440;DHT22;6792;57.698;11.946;2022-10-17T03:39:11;18.50;50.10
13440;DHT22;6792;57.698;11.946;2022-10-17T03:41:41;18.50;50.20
13440;DHT22;6792;57.698;11.946;2022-10-17T03:44:10;18.50;50.30
13440;DHT22;6792;57.698;11.946;2022-10-17T03:46:39;18.40;50.30
13440;DHT22;6792;57.698;11.946;2022-10-17T03:49:09;18.40;50.40
13440;DHT22;6792;57.698;11.946;2022-10-17T03:51:38;18.40;50.50
13440;DHT22;6792;57.698;11.946;2022-10-17T03:54:07;18.40;50.40
13440;DHT22;6792;57.698;11.946;2022-10-17T03:56:36;18.40;50.50
13440;DHT22;6792;57.698;11.946;2022-10-17T03:59:06;18.40;50.50
13440;DHT22;6792;57.698;11.946;2022-10-17T04:01:36;18.40;50.60
13440;DHT22;6792;57.698;11.946;2022-10-17T04:04:05;18.30;50.70
13440;DHT22;6792;57.698;11.946;2022-10-17T04:06:34;18.30;50.10
13440;DHT22;6792;57.698;11.946;2022-10-17T04:09:04;18.30;50.70
13440;DHT22;6792;57.698;11.946;2022-10-17T04:11:34;18.30;50.70
13440;DHT22;6792;57.698;11.946;2022-10-17T04:14:03;18.30;50.80
13440;DHT22;6792;57.698;11.946;2022-10-17T04:16:32;18.30;50.80
13440;DHT22;6792;57.698;11.946;2022-10-17T04:19:01;18.30;50.90
13440;DHT22;6792;57.698;11.946;2022-10-17T04:21:30;18.30;50.90
13440;DHT22;6792;57.698;11.946;2022-10-17T04:24:00;18.20;50.90
13440;DHT22;6792;57.698;11.946;2022-10-17T04:26:29;18.20;50.90
13440;DHT22;6792;57.698;11.946;2022-10-17T04:28:58;18.20;50.90
13440;DHT22;6792;57.698;11.946;2022-10-17T04:31:27;18.20;50.90
13440;DHT22;6792;57.698;11.946;2022-10-17T04:33:56;18.20;50.90
13440;DHT22;6792;57.698;11.946;2022-10-17T04:36:25;18.20;51.00
13440;DHT22;6792;57.698;11.946;2022-10-17T04:38:54;18.20;51.00
13440;DHT22;6792;57.698;11.946;2022-10-17T04:41:23;18.20;51.00
13440;DHT22;6792;57.698;11.946;2022-10-17T04:43:52;18.20;51.00
13440;DHT22;6792;57.698;11.946;2022-10-17T04:46:21;18.20;51.00
13440;DHT22;6792;57.698;11.946;2022-10-17T04:48:50;18.10;51.10
13440;DHT22;6792;57.698;11.946;2022-10-17T04:51:19;18.10;51.20
13440;DHT22;6792;57.698;11.946;2022-10-17T04:53:48;18.10;51.20
13440;DHT22;6792;57.698;11.946;2022-10-17T04:56:19;18.00;51.30
13440;DHT22;6792;57.698;11.946;2022-10-17T04:58:49;18.00;51.30
13440;DHT22;6792;57.698;11.946;2022-10-17T05:01:20;18.00;51.40
13440;DHT22;6792;57.698;11.946;2022-10-17T05:03:49;18.00;51.40
13440;DHT22;6792;57.698;11.946;2022-10-17T05:06:20;18.00;51.50
13440;DHT22;6792;57.698;11.946;2022-10-17T05:08:49;18.00;51.60
13440;DHT22;6792;57.698;11.946;2022-10-17T05:11:20;18.00;51.60
13440;DHT22;6792;57.698;11.946;2022-10-17T05:13:51;18.00;51.60
13440;DHT22;6792;57.698;11.946;2022-10-17T05:16:21;18.00;51.70
13440;DHT22;6792;57.698;11.946;2022-10-17T05:18:51;18.00;51.70
13440;DHT22;6792;57.698;11.946;2022-10-17T05:21:21;18.00;51.80
13440;DHT22;6792;57.698;11.946;2022-10-17T05:23:50;18.00;51.90
13440;DHT22;6792;57.698;11.946;2022-10-17T05:26:20;18.00;52.00
13440;DHT22;6792;57.698;11.946;2022-10-17T05:28:50;18.00;52.00
13440;DHT22;6792;57.698;11.946;2022-10-17T05:31:19;17.90;52.00
13440;DHT22;6792;57.698;11.946;2022-10-17T05:33:48;18.00;52.10
13440;DHT22;6792;57.698;11.946;2022-10-17T05:36:17;17.90;52.10
13440;DHT22;6792;57.698;11.946;2022-10-17T05:38:49;17.90;52.20
13440;DHT22;6792;57.698;11.946;2022-10-17T05:41:18;17.90;52.20
13440;DHT22;6792;57.698;11.946;2022-10-17T05:43:49;17.90;52.30
13440;DHT22;6792;57.698;11.946;2022-10-17T05:46:18;17.90;51.80
13440;DHT22;6792;57.698;11.946;2022-10-17T05:48:47;17.90;52.30
13440;DHT22;6792;57.698;11.946;2022-10-17T05:51:16;17.90;52.40
13440;DHT22;6792;57.698;11.946;2022-10-17T05:53:45;17.90;52.40
13440;DHT22;6792;57.698;11.946;2022-10-17T05:56:14;17.90;52.40
13440;DHT22;6792;57.698;11.946;2022-10-17T05:58:43;17.90;52.50
13440;DHT22;6792;57.698;11.946;2022-10-17T06:01:12;17.90;52.60
13440;DHT22;6792;57.698;11.946;2022-10-17T06:03:41;17.90;52.60
13440;DHT22;6792;57.698;11.946;2022-10-17T06:06:12;17.90;52.60
13440;DHT22;6792;57.698;11.946;2022-10-17T06:08:41;17.90;52.10
13440;DHT22;6792;57.698;11.946;2022-10-17T06:11:11;17.90;52.70
13440;DHT22;6792;57.698;11.946;2022-10-17T06:13:40;17.90;52.70
13440;DHT22;6792;57.698;11.946;2022-10-17T06:16:09;17.90;52.70
13440;DHT22;6792;57.698;11.946;2022-10-17T06:18:38;17.90;52.80
13440;DHT22;6792;57.698;11.946;2022-10-17T06:21:09;17.90;52.80
13440;DHT22;6792;57.698;11.946;2022-10-17T06:23:38;17.90;52.30
13440;DHT22;6792;57.698;11.946;2022-10-17T06:26:08;17.90;53.00
13440;DHT22;6792;57.698;11.946;2022-10-17T06:28:37;17.90;52.90
13440;DHT22;6792;57.698;11.946;2022-10-17T06:31:07;17.90;52.90
13440;DHT22;6792;57.698;11.946;2022-10-17T06:33:37;17.90;52.90
13440;DHT22;6792;57.698;11.946;2022-10-17T06:36:10;17.80;52.90
13440;DHT22;6792;57.698;11.946;2022-10-17T06:38:40;17.80;53.00
13440;DHT22;6792;57.698;11.946;2022-10-17T06:41:11;17.80;53.00
13440;DHT22;6792;57.698;11.946;2022-10-17T06:43:41;17.80;53.00
13440;DHT22;6792;57.698;11.946;2022-10-17T06:46:13;17.80;53.10
13440;DHT22;6792;57.698;11.946;2022-10-17T06:48:43;17.80;53.10
13440;DHT22;6792;57.698;11.946;2022-10-17T06:51:12;17.80;52.60
13440;DHT22;6792;57.698;11.946;2022-10-17T06:53:41;17.80;53.20
13440;DHT22;6792;57.698;11.946;2022-10-17T06:58:59;17.90;52.70
13440;DHT22;6792;57.698;11.946;2022-10-17T07:01:29;17.90;52.70
13440;DHT22;6792;57.698;11.946;2022-10-17T07:03:58;17.90;53.30
13440;DHT22;6792;57.698;11.946;2022-10-17T07:06:27;17.90;53.30
13440;DHT22;6792;57.698;11.946;2022-10-17T07:08:56;17.90;53.30
13440;DHT22;6792;57.698;11.946;2022-10-17T07:11:25;17.90;53.30
13440;DHT22;6792;57.698;11.946;2022-10-17T07:13:54;17.90;53.30
13440;DHT22;6792;57.698;11.946;2022-10-17T07:16:23;17.90;53.40
13440;DHT22;6792;57.698;11.946;2022-10-17T07:18:52;17.90;53.40
13440;DHT22;6792;57.698;11.946;2022-10-17T07:21:21;17.90;54.00
13440;DHT22;6792;57.698;11.946;2022-10-17T07:23:50;18.00;53.40
13440;DHT22;6792;57.698;11.946;2022-10-17T07:26:20;18.00;53.40
13440;DHT22;6792;57.698;11.946;2022-10-17T07:28:51;18.00;53.40
13440;DHT22;6792;57.698;11.946;2022-10-17T07:31:23;18.00;53.50
13440;DHT22;6792;57.698;11.946;2022-10-17T07:33:53;18.00;53.50
13440;DHT22;6792;57.698;11.946;2022-10-17T07:36:22;18.00;53.00
13440;DHT22;6792;57.698;11.946;2022-10-17T07:38:50;18.00;53.60
13440;DHT22;6792;57.698;11.946;2022-10-17T07:41:19;18.00;53.50
13440;DHT22;6792;57.698;11.946;2022-10-17T07:43:48;18.00;53.70
13440;DHT22;6792;57.698;11.946;2022-10-17T07:46:17;18.10;53.60
13440;DHT22;6792;57.698;11.946;2022-10-17T07:48:46;18.10;53.50
13440;DHT22;6792;57.698;11.946;2022-10-17T07:51:16;18.10;53.50
13440;DHT22;6792;57.698;11.946;2022-10-17T07:53:44;18.20;53.50
13440;DHT22;6792;57.698;11.946;2022-10-17T07:56:13;18.20;53.50
13440;DHT22;6792;57.698;11.946;2022-10-17T07:58:42;18.20;53.50
13440;DHT22;6792;57.698;11.946;2022-10-17T08:01:11;18.20;53.50
13440;DHT22;6792;57.698;11.946;2022-10-17T08:03:41;18.20;53.00
13440;DHT22;6792;57.698;11.946;2022-10-17T08:06:11;18.30;53.60
13440;DHT22;6792;57.698;11.946;2022-10-17T08:08:41;18.30;53.50
13440;DHT22;6792;57.698;11.946;2022-10-17T08:11:11;18.20;53.50
13440;DHT22;6792;57.698;11.946;2022-10-17T08:13:41;18.30;53.60
13440;DHT22;6792;57.698;11.946;2022-10-17T08:16:11;18.30;53.10
13440;DHT22;6792;57.698;11.946;2022-10-17T08:18:41;18.30;53.70
13440;DHT22;6792;57.698;11.946;2022-10-17T08:21:12;18.30;53.90
13440;DHT22;6792;57.698;11.946;2022-10-17T08:23:41;18.30;53.60
13440;DHT22;6792;57.698;11.946;2022-10-17T08:26:10;18.30;53.70
13440;DHT22;6792;57.698;11.946;2022-10-17T08:28:42;18.40;54.20
13440;DHT22;6792;57.698;11.946;2022-10-17T08:31:13;18.40;53.20
13440;DHT22;6792;57.698;11.946;2022-10-17T08:33:42;18.40;53.80
13440;DHT22;6792;57.698;11.946;2022-10-17T08:36:13;18.40;53.80
13440;DHT22;6792;57.698;11.946;2022-10-17T08:38:43;18.40;53.80
13440;DHT22;6792;57.698;11.946;2022-10-17T08:41:19;18.50;53.30
13440;DHT22;6792;57.698;11.946;2022-10-17T08:43:57;18.50;54.00
13440;DHT22;6792;57.698;11.946;2022-10-17T08:46:30;18.50;53.90
13440;DHT22;6792;57.698;11.946;2022-10-17T08:49:01;18.50;53.90
13440;DHT22;6792;57.698;11.946;2022-10-17T08:51:33;18.60;53.90
13440;DHT22;6792;57.698;11.946;2022-10-17T08:54:08;18.60;53.30
13440;DHT22;6792;57.698;11.946;2022-10-17T08:56:39;18.60;53.90
13440;DHT22;6792;57.698;11.946;2022-10-17T08:59:12;18.60;53.90
13440;DHT22;6792;57.698;11.946;2022-10-17T09:01:45;18.70;53.90
13440;DHT22;6792;57.698;11.946;2022-10-17T09:04:43;18.70;53.90
13440;DHT22;6792;57.698;11.946;2022-10-17T09:07:15;18.70;53.30
13440;DHT22;6792;57.698;11.946;2022-10-17T09:09:50;18.70;53.90
13440;DHT22;6792;57.698;11.946;2022-10-17T09:12:22;18.70;53.80
13440;DHT22;6792;57.698;11.946;2022-10-17T09:20:41;18.80;53.30
13440;DHT22;6792;57.698;11.946;2022-10-17T09:23:14;18.80;53.80
13440;DHT22;6792;57.698;11.946;2022-10-17T09:25:45;18.80;53.80
13440;DHT22;6792;57.698;11.946;2022-10-17T09:28:18;18.80;53.70
13440;DHT22;6792;57.698;11.946;2022-10-17T09:30:49;18.90;53.80
13440;DHT22;6792;57.698;11.946;2022-10-17T09:33:21;18.90;54.00
13440;DHT22;6792;57.698;11.946;2022-10-17T09:35:51;18.90;53.80
13440;DHT22;6792;57.698;11.946;2022-10-17T09:38:22;18.90;53.80
13440;DHT22;6792;57.698;11.946;2022-10-17T09:40:53;19.00;53.80
13440;DHT22;6792;57.698;11.946;2022-10-17T09:43:23;19.00;53.70
13440;DHT22;6792;57.698;11.946;2022-10-17T09:45:58;19.00;53.70
13440;DHT22;6792;57.698;11.946;2022-10-17T09:48:30;19.00;53.60
13440;DHT22;6792;57.698;11.946;2022-10-17T09:51:00;19.00;53.70
13440;DHT22;6792;57.698;11.946;2022-10-17T09:53:32;19.10;53.70
13440;DHT22;6792;57.698;11.946;2022-10-17T09:56:05;19.10;53.70
13440;DHT22;6792;57.698;11.946;2022-10-17T09:58:44;19.10;53.60
13440;DHT22;6792;57.698;11.946;2022-10-17T10:01:19;19.10;53.60
13440;DHT22;6792;57.698;11.946;2022-10-17T10:06:21;19.20;53.60
13440;DHT22;6792;57.698;11.946;2022-10-17T10:08:52;19.20;53.50
13440;DHT22;6792;57.698;11.946;2022-10-17T10:11:23;19.20;53.00
13440;DHT22;6792;57.698;11.946;2022-10-17T10:13:53;19.20;53.50
13440;DHT22;6792;57.698;11.946;2022-10-17T10:16:29;19.30;53.50
13440;DHT22;6792;57.698;11.946;2022-10-17T10:18:55;19.30;53.00
13440;DHT22;6792;57.698;11.946;2022-10-17T10:21:25;19.30;53.60
13440;DHT22;6792;57.698;11.946;2022-10-17T10:24:10;19.30;53.50
13440;DHT22;6792;57.698;11.946;2022-10-17T10:26:41;19.30;53.50
13440;DHT22;6792;57.698;11.946;2022-10-17T10:29:22;19.30;53.50
13440;DHT22;6792;57.698;11.946;2022-10-17T10:31:52;19.30;53.90
13440;DHT22;6792;57.698;11.946;2022-10-17T10:34:23;19.40;53.60
13440;DHT22;6792;57.698;11.946;2022-10-17T10:36:59;19.40;53.60
13440;DHT22;6792;57.698;11.946;2022-10-17T10:39:44;19.40;53.60
13440;DHT22;6792;57.698;11.946;2022-10-17T10:42:25;19.40;53.60
13440;DHT22;6792;57.698;11.946;2022-10-17T10:44:57;19.40;53.70
13440;DHT22;6792;57.698;11.946;2022-10-17T10:47:28;19.40;53.70
13440;DHT22;6792;57.698;11.946;2022-10-17T10:50:17;19.40;53.70
13440;DHT22;6792;57.698;11.946;2022-10-17T10:52:49;19.30;53.60
13440;DHT22;6792;57.698;11.946;2022-10-17T10:55:23;19.30;53.70
13440;DHT22;6792;57.698;11.946;2022-10-17T10:57:55;19.30;53.70
13440;DHT22;6792;57.698;11.946;2022-10-17T11:00:26;19.30;53.70
13440;DHT22;6792;57.698;11.946;2022-10-17T11:03:02;19.30;53.70
13440;DHT22;6792;57.698;11.946;2022-10-17T11:05:39;19.30;53.60
13440;DHT22;6792;57.698;11.946;2022-10-17T11:08:15;19.30;53.60
13440;DHT22;6792;57.698;11.946;2022-10-17T11:10:56;19.30;53.10
13440;DHT22;6792;57.698;11.946;2022-10-17T11:13:29;19.30;53.60
13440;DHT22;6792;57.698;11.946;2022-10-17T11:16:01;19.30;53.70
13440;DHT22;6792;57.698;11.946;2022-10-17T11:18:33;19.30;53.10
13440;DHT22;6792;57.698;11.946;2022-10-17T11:21:08;19.30;53.70
13440;DHT22;6792;57.698;11.946;2022-10-17T11:23:39;19.30;53.50
13440;DHT22;6792;57.698;11.946;2022-10-17T11:26:12;19.30;53.50
13440;DHT22;6792;57.698;11.946;2022-10-17T11:28:41;19.30;53.40
13440;DHT22;6792;57.698;11.946;2022-10-17T11:31:12;19.40;53.40
13440;DHT22;6792;57.698;11.946;2022-10-17T11:33:45;19.30;53.30
13440;DHT22;6792;57.698;11.946;2022-10-17T11:36:17;19.30;53.20
13440;DHT22;6792;57.698;11.946;2022-10-17T11:38:48;19.30;53.20
13440;DHT22;6792;57.698;11.946;2022-10-17T11:41:22;19.40;53.20
13440;DHT22;6792;57.698;11.946;2022-10-17T11:43:55;19.30;53.20
13440;DHT22;6792;57.698;11.946;2022-10-17T11:46:25;19.30;53.30
13440;DHT22;6792;57.698;11.946;2022-10-17T11:49:01;19.30;53.20
13440;DHT22;6792;57.698;11.946;2022-10-17T11:51:35;19.30;53.20
13440;DHT22;6792;57.698;11.946;2022-10-17T11:54:08;19.30;53.30
13440;DHT22;6792;57.698;11.946;2022-10-17T11:56:41;19.30;53.30
13440;DHT22;6792;57.698;11.946;2022-10-17T11:59:23;19.30;53.40
13440;DHT22;6792;57.698;11.946;2022-10-17T12:01:51;19.30;53.40
13440;DHT22;6792;57.698;11.946;2022-10-17T12:04:28;19.30;53.40
13440;DHT22;6792;57.698;11.946;2022-10-17T12:07:04;19.30;53.40
13440;DHT22;6792;57.698;11.946;2022-10-17T12:09:37;19.30;53.40
13440;DHT22;6792;57.698;11.946;2022-10-17T12:12:05;19.30;52.90
13440;DHT22;6792;57.698;11.946;2022-10-17T12:14:42;19.30;53.40
13440;DHT22;6792;57.698;11.946;2022-10-17T12:17:31;19.30;53.30
13440;DHT22;6792;57.698;11.946;2022-10-17T12:23:26;19.20;53.50
13440;DHT22;6792;57.698;11.946;2022-10-17T12:25:57;19.20;53.70
13440;DHT22;6792;57.698;11.946;2022-10-17T12:28:30;19.10;53.00
13440;DHT22;6792;57.698;11.946;2022-10-17T12:31:02;19.20;53.50
13440;DHT22;6792;57.698;11.946;2022-10-17T12:33:35;19.20;53.50
13440;DHT22;6792;57.698;11.946;2022-10-17T12:42:53;19.30;53.40
13440;DHT22;6792;57.698;11.946;2022-10-17T12:45:47;19.20;53.60
13440;DHT22;6792;57.698;11.946;2022-10-17T12:51:21;19.00;53.70
13440;DHT22;6792;57.698;11.946;2022-10-17T12:53:55;19.00;53.70
13440;DHT22;6792;57.698;11.946;2022-10-17T12:56:34;19.00;53.60
13440;DHT22;6792;57.698;11.946;2022-10-17T12:59:08;19.00;53.00
13440;DHT22;6792;57.698;11.946;2022-10-17T13:01:42;19.00;53.50
13440;DHT22;6792;57.698;11.946;2022-10-17T13:04:10;19.00;53.50
13440;DHT22;6792;57.698;11.946;2022-10-17T13:06:44;19.00;53.40
13440;DHT22;6792;57.698;11.946;2022-10-17T13:09:34;19.00;53.40
13440;DHT22;6792;57.698;11.946;2022-10-17T13:12:05;19.00;53.40
13440;DHT22;6792;57.698;11.946;2022-10-17T13:14:35;19.00;53.50
13440;DHT22;6792;57.698;11.946;2022-10-17T13:17:18;19.00;53.40
13440;DHT22;6792;57.698;11.946;2022-10-17T13:19:42;19.00;53.40
13440;DHT22;6792;57.698;11.946;2022-10-17T13:22:14;19.00;53.40
13440;DHT22;6792;57.698;11.946;2022-10-17T13:24:43;19.00;53.50
13440;DHT22;6792;57.698;11.946;2022-10-17T13:27:27;19.00;53.50
13440;DHT22;6792;57.698;11.946;2022-10-17T13:29:58;18.90;53.50
13440;DHT22;6792;57.698;11.946;2022-10-17T13:32:34;18.90;53.60
13440;DHT22;6792;57.698;11.946;2022-10-17T13:35:09;18.90;53.70
13440;DHT22;6792;57.698;11.946;2022-10-17T13:37:40;18.80;53.20
13440;DHT22;6792;57.698;11.946;2022-10-17T13:40:17;18.80;53.90
13440;DHT22;6792;57.698;11.946;2022-10-17T13:42:47;18.80;53.40
13440;DHT22;6792;57.698;11.946;2022-10-17T13:45:27;18.80;54.10
13440;DHT22;6792;57.698;11.946;2022-10-17T13:47:49;18.80;54.20
13440;DHT22;6792;57.698;11.946;2022-10-17T13:50:23;18.70;54.20
13440;DHT22;6792;57.698;11.946;2022-10-17T13:53:16;18.70;54.20
13440;DHT22;6792;57.698;11.946;2022-10-17T13:55:57;18.70;54.30
13440;DHT22;6792;57.698;11.946;2022-10-17T13:58:31;18.60;54.40
13440;DHT22;6792;57.698;11.946;2022-10-17T14:01:02;18.60;54.50
13440;DHT22;6792;57.698;11.946;2022-10-17T14:03:31;18.60;54.60
13440;DHT22;6792;57.698;11.946;2022-10-17T14:06:17;18.60;54.60
13440;DHT22;6792;57.698;11.946;2022-10-17T14:08:52;18.60;54.60
13440;DHT22;6792;57.698;11.946;2022-10-17T14:11:26;18.60;54.70
13440;DHT22;6792;57.698;11.946;2022-10-17T14:13:56;18.60;54.80
13440;DHT22;6792;57.698;11.946;2022-10-17T14:16:26;18.60;54.80
13440;DHT22;6792;57.698;11.946;2022-10-17T14:18:56;18.70;54.90
13440;DHT22;6792;57.698;11.946;2022-10-17T14:21:26;18.60;54.90
13440;DHT22;6792;57.698;11.946;2022-10-17T14:24:25;18.70;55.10
13440;DHT22;6792;57.698;11.946;2022-10-17T14:26:55;18.70;55.00
13440;DHT22;6792;57.698;11.946;2022-10-17T14:29:27;18.70;55.00
13440;DHT22;6792;57.698;11.946;2022-10-17T14:32:03;18.70;55.10
13440;DHT22;6792;57.698;11.946;2022-10-17T14:34:35;18.60;55.10
13440;DHT22;6792;57.698;11.946;2022-10-17T14:37:10;18.70;55.20
13440;DHT22;6792;57.698;11.946;2022-10-17T14:39:39;18.70;55.20
13440;DHT22;6792;57.698;11.946;2022-10-17T14:42:17;18.70;55.30
13440;DHT22;6792;57.698;11.946;2022-10-17T14:44:51;18.70;55.30
13440;DHT22;6792;57.698;11.946;2022-10-17T14:47:23;18.60;55.20
13440;DHT22;6792;57.698;11.946;2022-10-17T14:52:39;18.60;54.90
13440;DHT22;6792;57.698;11.946;2022-10-17T14:55:22;18.60;55.50
13440;DHT22;6792;57.698;11.946;2022-10-17T14:57:51;18.60;55.00
13440;DHT22;6792;57.698;11.946;2022-10-17T15:00:21;18.50;55.70
13440;DHT22;6792;57.698;11.946;2022-10-17T15:02:52;18.50;55.70
13440;DHT22;6792;57.698;11.946;2022-10-17T15:05:21;18.60;55.80
13440;DHT22;6792;57.698;11.946;2022-10-17T15:07:51;18.60;55.80
13440;DHT22;6792;57.698;11.946;2022-10-17T15:10:31;18.60;55.90
13440;DHT22;6792;57.698;11.946;2022-10-17T15:13:01;18.60;56.00
13440;DHT22;6792;57.698;11.946;2022-10-17T15:15:31;18.60;56.00
13440;DHT22;6792;57.698;11.946;2022-10-17T15:18:00;18.60;56.10
13440;DHT22;6792;57.698;11.946;2022-10-17T15:20:30;18.60;56.10
13440;DHT22;6792;57.698;11.946;2022-10-17T15:23:00;18.60;56.10
13440;DHT22;6792;57.698;11.946;2022-10-17T15:25:30;18.60;56.10
13440;DHT22;6792;57.698;11.946;2022-10-17T15:27:59;18.70;56.20
13440;DHT22;6792;57.698;11.946;2022-10-17T15:30:29;18.70;56.30
13440;DHT22;6792;57.698;11.946;2022-10-17T15:32:59;18.70;55.80
13440;DHT22;6792;57.698;11.946;2022-10-17T15:35:28;18.70;56.40
13440;DHT22;6792;57.698;11.946;2022-10-17T15:37:58;18.70;56.40
13440;DHT22;6792;57.698;11.946;2022-10-17T15:40:29;18.70;56.40
13440;DHT22;6792;57.698;11.946;2022-10-17T15:42:58;18.70;56.50
13440;DHT22;6792;57.698;11.946;2022-10-17T15:45:27;18.70;56.60
13440;DHT22;6792;57.698;11.946;2022-10-17T15:48:00;18.70;56.60
13440;DHT22;6792;57.698;11.946;2022-10-17T15:50:28;18.70;56.10
13440;DHT22;6792;57.698;11.946;2022-10-17T15:52:57;18.70;56.70
13440;DHT22;6792;57.698;11.946;2022-10-17T15:55:29;18.70;56.20
13440;DHT22;6792;57.698;11.946;2022-10-17T15:57:59;18.70;56.80
13440;DHT22;6792;57.698;11.946;2022-10-17T16:00:28;18.80;56.80
13440;DHT22;6792;57.698;11.946;2022-10-17T16:02:58;18.70;56.30
13440;DHT22;6792;57.698;11.946;2022-10-17T16:05:28;18.80;57.00
13440;DHT22;6792;57.698;11.946;2022-10-17T16:07:57;18.80;57.10
13440;DHT22;6792;57.698;11.946;2022-10-17T16:10:26;18.80;57.10
13440;DHT22;6792;57.698;11.946;2022-10-17T16:12:55;18.80;57.20
13440;DHT22;6792;57.698;11.946;2022-10-17T16:15:26;18.80;56.70
13440;DHT22;6792;57.698;11.946;2022-10-17T16:17:56;18.80;57.20
13440;DHT22;6792;57.698;11.946;2022-10-17T16:20:25;18.90;57.40
13440;DHT22;6792;57.698;11.946;2022-10-17T16:22:54;18.90;57.40
13440;DHT22;6792;57.698;11.946;2022-10-17T16:25:26;18.90;57.50
13440;DHT22;6792;57.698;11.946;2022-10-17T16:27:58;18.90;57.60
13440;DHT22;6792;57.698;11.946;2022-10-17T16:30:28;18.90;57.80
13440;DHT22;6792;57.698;11.946;2022-10-17T16:32:59;18.90;57.70
13440;DHT22;6792;57.698;11.946;2022-10-17T16:35:29;19.00;57.90